createdAt,value
2023-04-06T00:01:31.712Z,91453.60
2023-04-06T00:09:54.804Z,91464.79
2023-04-06T00:18:17.806Z,91442.55
2023-04-06T00:26:40.950Z,91421.83
2023-04-06T00:35:05.313Z,91404.20
2023-04-06T00:43:28.440Z,91399.95
2023-04-06T00:51:51.528Z,91403.00
2023-04-06T01:00:15.663Z,91418.72
2023-04-06T01:08:40.121Z,91436.70
2023-04-06T01:17:15.670Z,91461.46
2023-04-06T01:25:39.792Z,91509.66
2023-04-06T01:34:05.169Z,91570.13
2023-04-06T01:42:29.434Z,91597.73
2023-04-06T01:50:55.128Z,91598.66
2023-04-06T01:59:21.235Z,91598.15
2023-04-06T02:07:44.596Z,91596.48
2023-04-06T02:16:08.791Z,91597.92
2023-04-06T02:24:31.982Z,91602.86
2023-04-06T02:32:55.088Z,91638.91
2023-04-06T02:41:18.935Z,91677.17
2023-04-06T02:49:42.201Z,91681.59
2023-04-06T02:58:06.565Z,91675.09
2023-04-06T03:06:37.427Z,91662.20
2023-04-06T03:15:09.081Z,91655.58
2023-04-06T03:23:33.053Z,91654.30
2023-04-06T03:31:57.592Z,91679.51
2023-04-06T03:40:28.669Z,91716.00
2023-04-06T03:48:51.759Z,91713.86
2023-04-06T03:57:16.504Z,91699.66
2023-04-06T04:05:39.564Z,91689.83
2023-04-06T04:14:02.606Z,91688.70
2023-04-06T04:22:25.889Z,91693.80
2023-04-06T04:30:49.097Z,91708.80
2023-04-06T04:39:13.320Z,91767.02
2023-04-06T04:47:39.493Z,91852.52
2023-04-06T04:56:03.752Z,91909.43
2023-04-06T05:04:27.258Z,91934.48
2023-04-06T05:12:51.716Z,91948.80
2023-04-06T05:21:14.907Z,91978.52
2023-04-06T05:29:48.065Z,92028.27
2023-04-06T05:38:12.620Z,92090.57
2023-04-06T05:46:36.001Z,92155.88
2023-04-06T05:55:00.295Z,92175.33
2023-04-06T06:03:23.886Z,92184.19
2023-04-06T06:11:50.840Z,92198.67
2023-04-06T06:20:14.965Z,92211.19
2023-04-06T06:28:39.390Z,92233.59
2023-04-06T06:37:03.313Z,92242.93
2023-04-06T06:45:26.791Z,92267.23
2023-04-06T06:53:50.246Z,92314.00
2023-04-06T07:02:13.321Z,92337.01
2023-04-06T07:10:36.526Z,92344.12
2023-04-06T07:18:59.930Z,92350.68
2023-04-06T07:27:23.629Z,92376.51
2023-04-06T07:35:47.392Z,92412.87
2023-04-06T07:44:10.996Z,92412.21
2023-04-06T07:52:37.035Z,92386.70
2023-04-06T08:01:03.150Z,92302.82
2023-04-06T08:09:26.469Z,92293.94
2023-04-06T08:17:49.546Z,92331.08
2023-04-06T08:26:13.607Z,92373.27
2023-04-06T08:34:36.845Z,92332.06
2023-04-06T08:43:03.900Z,92304.27
2023-04-06T08:51:29.225Z,92309.99
2023-04-06T08:59:53.186Z,92327.20
2023-04-06T09:08:16.368Z,92367.14
2023-04-06T09:16:44.640Z,92383.36
2023-04-06T09:25:11.019Z,92377.26
2023-04-06T09:33:34.314Z,92368.83
2023-04-06T09:41:57.782Z,92363.85
2023-04-06T09:50:22.291Z,92351.02
2023-04-06T09:58:50.548Z,92330.96
2023-04-06T10:07:14.236Z,92335.86
2023-04-06T10:15:39.662Z,92357.81
2023-04-06T10:24:08.521Z,92387.38
2023-04-06T10:32:37.254Z,92402.80
2023-04-06T10:41:06.277Z,92395.52
2023-04-06T10:49:29.244Z,92374.59
2023-04-06T10:57:52.893Z,92372.36
2023-04-06T11:06:27.876Z,92402.83
2023-04-06T11:14:54.943Z,92433.90
2023-04-06T11:23:25.525Z,92443.34
2023-04-06T11:31:54.005Z,92467.32
2023-04-06T11:40:21.846Z,92464.10
2023-04-06T11:48:46.640Z,92451.61
2023-04-06T11:57:10.456Z,92456.41
2023-04-06T12:05:35.143Z,92452.98
2023-04-06T12:13:58.301Z,92430.70
2023-04-06T12:22:21.339Z,92426.39
2023-04-06T12:30:45.275Z,92469.74
2023-04-06T12:39:08.251Z,92497.02
2023-04-06T12:47:31.247Z,92541.25
2023-04-06T12:55:56.178Z,92560.62
2023-04-06T13:04:19.136Z,92566.40
2023-04-06T13:12:42.170Z,92564.80
2023-04-06T13:21:07.028Z,92551.45
2023-04-06T13:29:30.557Z,92573.46
2023-04-06T13:37:53.729Z,92584.92
2023-04-06T13:46:17.759Z,92581.12
2023-04-06T13:54:40.954Z,92592.10
2023-04-06T14:03:04.066Z,92594.84
2023-04-06T14:11:27.563Z,92592.33
2023-04-06T14:19:50.488Z,92610.75
2023-04-06T14:28:13.643Z,92626.95
2023-04-06T14:36:39.518Z,92650.36
2023-04-06T14:45:02.616Z,92662.95
2023-04-06T14:53:27.497Z,92667.01
2023-04-06T15:01:50.476Z,92684.02
2023-04-06T15:10:13.721Z,92693.31
2023-04-06T15:18:36.830Z,92688.84
2023-04-06T15:26:59.829Z,92694.59
2023-04-06T15:35:23.128Z,92713.89
2023-04-06T15:43:46.362Z,92720.02
2023-04-06T15:52:09.527Z,92721.44
2023-04-06T16:00:32.533Z,92746.95
2023-04-06T16:08:55.482Z,92737.55
2023-04-06T16:17:18.618Z,92742.55
2023-04-06T16:25:42.584Z,92772.49
2023-04-06T16:34:05.615Z,92789.06
2023-04-06T16:42:28.642Z,92775.24
2023-04-06T16:50:51.631Z,92779.53
2023-04-06T16:59:14.628Z,92813.30
2023-04-06T17:07:37.829Z,92813.86
2023-04-06T17:16:01.763Z,92807.34
2023-04-06T17:24:24.883Z,92814.85
2023-04-06T17:32:48.402Z,92848.58
2023-04-06T17:41:13.473Z,92858.48
2023-04-06T17:49:36.691Z,92844.70
2023-04-06T17:58:00.145Z,92857.61
2023-04-06T18:06:25.589Z,92882.92
2023-04-06T18:14:49.769Z,92888.34
2023-04-06T18:23:13.155Z,92892.15
2023-04-06T18:40:05.830Z,92932.27
2023-04-06T18:48:31.266Z,92935.92
2023-04-06T18:56:54.236Z,92953.46
2023-04-06T19:05:18.651Z,92986.20
2023-04-06T19:13:46.356Z,93008.67
2023-04-06T19:22:11.442Z,93021.74
2023-04-06T19:30:34.345Z,93049.30
2023-04-06T19:38:58.993Z,93080.20
2023-04-06T19:47:23.278Z,93113.91
2023-04-06T19:55:46.731Z,93119.09
2023-04-06T20:04:10.338Z,93127.45
2023-04-06T20:12:33.822Z,93149.54
2023-04-06T20:20:57.013Z,93153.05
2023-04-06T20:29:19.989Z,93126.62
2023-04-06T20:37:43.024Z,93128.60
2023-04-06T20:46:07.471Z,93159.30
2023-04-06T20:54:30.763Z,93186.45
2023-04-06T21:02:53.879Z,93184.19
2023-04-06T21:11:17.005Z,93180.36
2023-04-06T21:19:40.274Z,93196.57
2023-04-06T21:28:03.769Z,93230.30
2023-04-06T21:36:27.117Z,93236.80
2023-04-06T21:44:50.325Z,93224.05
2023-04-06T21:53:13.241Z,93227.69
2023-04-06T22:01:36.227Z,93254.84
2023-04-06T22:09:59.632Z,93280.07
2023-04-06T22:18:22.628Z,93295.71
2023-04-06T22:26:45.986Z,93302.41
2023-04-06T22:35:09.764Z,93317.20
2023-04-06T22:43:32.726Z,93343.35
2023-04-06T22:51:55.790Z,93381.22
2023-04-06T23:00:19.455Z,93388.05
2023-04-06T23:08:42.456Z,93384.02
2023-04-06T23:17:05.769Z,93398.36
2023-04-06T23:25:28.782Z,93438.20
2023-04-06T23:33:51.843Z,93483.20
2023-04-06T23:42:14.859Z,93494.56
2023-04-06T23:50:38.040Z,93514.31
2023-04-06T23:59:01.236Z,93539.52
